Data for 01/18/2009

Time Sea-Level Adjusted Pressure Absolute Pressure Temperature Relative Humidity Dew Point   
(mb) (inHg) (mb) (inHg) (C) (F) (%) (C) (F)
00:05 1033 30.5 862 25.45 -2.4 27.6 58 -9.6 14.8
00:10 1033 30.5 862 25.45 -2.7 27.2 59 -9.7 14.5
00:15 1033 30.5 862 25.45 -2.5 27.5 58 -9.7 14.6
00:20 1033 30.5 862 25.45 -2.5 27.4 58 -9.7 14.6
00:25 1033 30.5 862 25.45 -2.7 27.1 58 -9.8 14.3
00:30 1032 30.47 862 25.45 -2.9 26.9 59 -9.7 14.5
00:35 1032 30.47 862 25.45 -3 26.5 60 -9.7 14.5
00:40 1033 30.5 862 25.45 -3.4 25.8 63 -9.6 14.7
00:45 1033 30.5 862 25.45 -3.7 25.4 63 -9.7 14.5
00:50 1033 30.5 862 25.45 -3.6 25.4 62 -9.8 14.3
00:55 1033 30.5 862 25.45 -3.4 25.8 62 -9.7 14.5
01:00 1033 30.5 862 25.45 -3.2 26.3 60 -9.8 14.4
01:05 1033 30.5 862 25.45 -3.2 26.2 61 -9.8 14.4
01:10 1033 30.5 862 25.45 -2.9 26.8 59 -9.7 14.5
01:15 1033 30.5 862 25.45 -2.9 26.8 59 -9.8 14.3
01:20 1033 30.5 862 25.45 -3.2 26.2 61 -9.7 14.5
01:25 1033 30.5 862 25.45 -3.2 26.3 59 -10.2 13.7
01:30 1033 30.5 862 25.45 -2.5 27.5 57 -10 14
01:35 1033 30.5 862 25.45 -2.5 27.6 57 -9.8 14.3
01:40 1033 30.5 862 25.45 -2.5 27.5 57 -9.9 14.3
01:45 1033 30.5 862 25.45 -2.3 27.9 56 -9.8 14.3
01:50 1033 30.5 862 25.45 -2 28.5 55 -9.8 14.3
01:55 1033 30.5 863 25.48 -1.8 28.8 54 -9.8 14.4
02:00 1033 30.5 863 25.48 -1.5 29.2 53 -9.8 14.3
02:05 1034 30.53 863 25.48 -1.6 29.1 53 -9.9 14.2
02:10 1033 30.5 863 25.48 -1.8 28.7 56 -9.5 14.8
02:15 1033 30.5 863 25.48 -2.1 28.3 55 -10 14.1
02:20 1034 30.53 863 25.48 -2.5 27.5 58 -9.7 14.6
02:25 1033 30.5 863 25.48 -2.9 26.7 58 -10 14
02:30 1034 30.53 863 25.48 -2.9 26.9 58 -10 14
02:35 1034 30.53 863 25.48 -3.2 26.2 60 -9.9 14.1
02:40 1034 30.53 863 25.48 -3.7 25.3 62 -10 14
02:45 1034 30.53 863 25.48 -4.7 23.6 66 -10.1 13.8
02:50 1034 30.53 863 25.48 -4.3 24.3 61 -10.6 12.9
02:55 1034 30.53 863 25.48 -3.5 25.7 60 -10.3 13.5
03:00 1034 30.53 863 25.48 -2.8 27 58 -10.1 13.9
03:05 1034 30.53 863 25.48 -2.9 26.9 59 -9.9 14.2
03:10 1034 30.53 863 25.48 -3.3 26 61 -9.9 14.2
03:15 1034 30.53 863 25.48 -3.5 25.7 60 -10.3 13.5
03:20 1034 30.53 863 25.48 -3.4 25.9 61 -9.8 14.4
03:25 1034 30.53 864 25.51 -3.7 25.4 61 -10.1 13.8
03:30 1034 30.53 864 25.51 -3.3 26.1 59 -10.2 13.7
03:35 1034 30.53 864 25.51 -4 24.9 62 -10.3 13.5
03:40 1034 30.53 864 25.51 -3.5 25.7 61 -10 14
03:45 1034 30.53 864 25.51 -3.7 25.4 62 -9.8 14.3
03:50 1034 30.53 864 25.51 -3.7 25.3 61 -10.1 13.8
03:55 1034 30.53 863 25.48 -3.2 26.3 58 -10.3 13.5
04:00 1034 30.53 863 25.48 -2.4 27.8 54 -10.6 13
04:05 1034 30.53 863 25.48 -2 28.4 54 -10 14
04:10 1034 30.53 863 25.48 -2.5 27.4 56 -10.1 13.9
04:15 1034 30.53 863 25.48 -2.9 26.7 58 -10 14
04:20 1034 30.53 863 25.48 -3.5 25.8 60 -10.1 13.9
04:25 1034 30.53 864 25.51 -3.1 26.5 56 -10.6 13
04:30 1034 30.53 863 25.48 -2.6 27.4 57 -9.9 14.2
04:35 1034 30.53 864 25.51 -2.5 27.5 56 -10.2 13.7
04:40 1034 30.53 864 25.51 -2.1 28.2 56 -9.8 14.3
04:45 1034 30.53 864 25.51 -2.4 27.7 57 -9.7 14.5
04:50 1034 30.53 864 25.51 -3.4 25.8 61 -9.8 14.3
04:55 1034 30.53 864 25.51 -3.9 24.9 63 -10.1 13.9
05:00 1034 30.53 864 25.51 -3.7 25.3 62 -10 13.9
05:05 1034 30.53 864 25.51 -3.8 25.1 61 -10.3 13.5
05:10 1034 30.53 864 25.51 -3.9 24.9 62 -10.1 13.7
05:15 1034 30.53 864 25.51 -3.1 26.5 59 -9.9 14.1
05:20 1034 30.53 864 25.51 -2.6 27.4 58 -9.7 14.6
05:25 1035 30.56 864 25.51 -2.3 27.9 57 -9.8 14.4
05:30 1035 30.56 864 25.51 -2.1 28.2 57 -9.4 15
05:35 1035 30.56 864 25.51 -2.1 28.3 59 -9.1 15.7
05:40 1035 30.56 864 25.51 -2.8 27 59 -9.7 14.5
05:45 1035 30.56 864 25.51 -4.5 23.8 65 -10.2 13.6
05:50 1035 30.56 864 25.51 -5.2 22.6 66 -10.7 12.7
05:55 1035 30.56 864 25.51 -4.8 23.4 63 -10.7 12.7
06:00 1035 30.56 864 25.51 -3.5 25.6 59 -10.3 13.4
06:05 1035 30.56 864 25.51 -2.8 27 57 -10.1 13.9
06:10 1035 30.56 864 25.51 -3 26.7 58 -10.1 13.8
06:15 1035 30.56 864 25.51 -3.1 26.4 59 -10.2 13.7
06:20 1035 30.56 864 25.51 -2.4 27.6 55 -10.3 13.5
06:25 1034 30.53 864 25.51 -2.7 27.2 59 -9.7 14.5
06:30 1034 30.53 863 25.48 -3.3 26.1 61 -9.7 14.5
06:35 1034 30.53 863 25.48 -4.1 24.6 65 -9.8 14.3
06:40 1034 30.53 863 25.48 -5.1 22.8 65 -10.8 12.6
06:45 1034 30.53 863 25.48 -4.1 24.7 62 -10.4 13.3
06:50 1034 30.53 864 25.51 -3.7 25.4 62 -10 14
06:55 1034 30.53 864 25.51 -3.6 25.6 61 -10 14
07:00 1035 30.56 864 25.51 -3.6 25.5 62 -9.8 14.3
07:05 1035 30.56 864 25.51 -3.7 25.4 62 -9.9 14.2
07:10 1035 30.56 864 25.51 -3.9 25 63 -10 14
07:15 1035 30.56 864 25.51 -3.9 24.9 63 -10 14
07:20 1035 30.56 864 25.51 -4.2 24.4 63 -10.2 13.6
07:25 1035 30.56 864 25.51 -4.4 24.1 64 -10.2 13.6
07:30 1035 30.56 864 25.51 -4.1 24.7 62 -10.3 13.5
07:35 1035 30.56 864 25.51 -3.7 25.3 61 -10.1 13.8
07:40 1035 30.56 864 25.51 -2.9 26.8 57 -10.4 13.3
07:45 1035 30.56 864 25.51 -2.8 26.9 59 -9.7 14.6
07:50 1035 30.56 864 25.51 -3.7 25.3 61 -10.3 13.5
07:55 1035 30.56 864 25.51 -3.5 25.8 59 -10.4 13.3
08:00 1035 30.56 864 25.51 -2.9 26.8 57 -10.3 13.4
08:05 1035 30.56 864 25.51 -2.9 26.9 57 -10.2 13.7
08:10 1035 30.56 864 25.51 -3.1 26.4 60 -9.8 14.4
08:15 1035 30.56 864 25.51 -3.6 25.5 61 -10.1 13.8
08:20 1035 30.56 864 25.51 -3.8 25.2 61 -10.1 13.7
08:25 1035 30.56 864 25.51 -3.7 25.3 61 -10.1 13.8
08:30 1035 30.56 864 25.51 -3.7 25.3 62 -10.1 13.9
08:35 1035 30.56 865 25.54 -3.7 25.4 61 -10.2 13.6
08:40 1036 30.59 865 25.54 -3.3 26.1 60 -10.1 13.9
08:45 1035 30.56 865 25.54 -3.5 25.7 60 -10.1 13.8
08:50 1035 30.56 864 25.51 -3.2 26.3 58 -10.2 13.6
08:55 1035 30.56 864 25.51 -2.7 27.2 57 -10 14
09:00 1035 30.56 864 25.51 -2.6 27.2 57 -10 14
09:05 1035 30.56 864 25.51 -2.3 27.9 55 -10.1 13.8
09:10 1035 30.56 865 25.54 -1.9 28.6 56 -9.7 14.6
09:15 1036 30.59 865 25.54 -1.8 28.8 57 -9.3 15.3
09:20 1035 30.56 865 25.54 -1.9 28.5 57 -9.5 15
09:25 1036 30.59 865 25.54 -2 28.3 57 -9.5 15
09:30 1036 30.59 865 25.54 -2.1 28.2 58 -9.3 15.3
09:35 1036 30.59 865 25.54 -2.1 28.2 57 -9.4 15
09:40 1036 30.59 865 25.54 -1.5 29.3 54 -9.6 14.7
09:45 1036 30.59 865 25.54 -1.4 29.4 55 -9.3 15.2
09:50 1036 30.59 865 25.54 -1.7 28.9 55 -9.5 14.8
09:55 1036 30.59 865 25.54 -1.5 29.3 54 -9.7 14.5
10:00 1036 30.59 865 25.54 -0.4 31.3 51 -9.3 15.3
10:05 1036 30.59 865 25.54 -0.1 31.9 51 -9.1 15.7
10:10 1036 30.59 865 25.54 0.3 32.5 48 -9.4 15
10:15 1036 30.59 865 25.54 1.3 34.3 47 -8.9 16
10:20 1036 30.59 865 25.54 1.7 35.1 45 -8.9 15.9
10:25 1036 30.59 865 25.54 1.9 35.5 42 -9.6 14.7
10:30 1036 30.59 865 25.54 2.3 36.2 40 -9.9 14.3
10:35 1036 30.59 865 25.54 1.6 34.8 44 -9.5 15
10:40 1036 30.59 865 25.54 2.4 36.3 40 -9.9 14.2
10:45 1036 30.59 865 25.54 3.3 37.9 39 -9.3 15.3
10:50 1036 30.59 865 25.54 3.3 37.9 40 -9.1 15.6
10:55 1036 30.59 865 25.54 3.5 38.2 41 -8.5 16.7
11:00 1036 30.59 865 25.54 2.9 37.2 42 -8.8 16.2
11:05 1036 30.59 865 25.54 2.1 35.9 42 -9.6 14.7
11:10 1036 30.59 865 25.54 1.6 34.9 41 -10.3 13.5
11:15 1036 30.59 865 25.54 2.2 36 39 -10.5 13.1
11:20 1036 30.59 865 25.54 2.9 37.2 40 -9.5 14.9
11:25 1036 30.59 865 25.54 2.5 36.5 39 -10.1 13.8
11:30 1036 30.59 865 25.54 3 37.4 38 -9.9 14.1
11:35 1036 30.59 865 25.54 2.8 37 41 -9.2 15.5
11:40 1036 30.59 865 25.54 2.7 36.9 39 -9.7 14.5
11:45 1036 30.59 865 25.54 2.5 36.5 41 -9.4 15.1
11:50 1036 30.59 865 25.54 2.7 36.9 43 -8.8 16.1
11:55 1036 30.59 865 25.54 2.6 36.7 43 -8.6 16.5
12:00 1036 30.59 865 25.54 2.9 37.2 44 -8.2 17.2
12:05 1036 30.59 865 25.54 2.8 37 43 -8.5 16.7
12:10 1036 30.59 865 25.54 3.3 38 37 -9.9 14.2
12:15 1036 30.59 865 25.54 3.8 38.8 39 -9.1 15.6
12:20 1036 30.59 865 25.54 3.6 38.5 40 -8.6 16.5
12:25 1036 30.59 865 25.54 3.8 38.8 40 -8.6 16.4
12:30 1036 30.59 865 25.54 4.2 39.5 40 -8.3 17.1
12:35 1036 30.59 865 25.54 4.4 40 40 -8.1 17.3
12:40 1035 30.56 865 25.54 4 39.1 40 -8.5 16.7
12:45 1035 30.56 865 25.54 4 39.2 38 -9 15.9
12:50 1035 30.56 865 25.54 4.4 40 39 -8.4 16.9
12:55 1035 30.56 864 25.51 4.6 40.3 41 -7.7 18.2
13:00 1035 30.56 864 25.51 4.6 40.4 41 -7.5 18.5
13:05 1035 30.56 864 25.51 4.7 40.5 40 -7.7 18.1
13:10 1035 30.56 864 25.51 4.8 40.7 40 -7.5 18.5
13:15 1035 30.56 864 25.51 5 41.1 40 -7.5 18.4
13:20 1035 30.56 864 25.51 4.9 40.7 41 -7.4 18.7
13:25 1035 30.56 864 25.51 4.5 40.1 41 -7.5 18.4
13:30 1035 30.56 864 25.51 4.4 39.9 41 -7.7 18.1
13:35 1035 30.56 864 25.51 4.4 40 42 -7.4 18.6
13:40 1035 30.56 864 25.51 4.6 40.2 42 -7.4 18.7
13:45 1035 30.56 864 25.51 4.4 39.9 41 -7.7 18.2
13:50 1035 30.56 864 25.51 4.8 40.7 40 -7.8 18
13:55 1035 30.56 864 25.51 5.3 41.5 38 -8 17.5
14:00 1035 30.56 864 25.51 5.4 41.7 37 -8.1 17.5
14:05 1035 30.56 864 25.51 5.4 41.7 37 -8 17.5
14:10 1035 30.56 864 25.51 5.2 41.3 37 -8.2 17.2
14:15 1035 30.56 864 25.51 4.8 40.6 38 -8.5 16.8
14:20 1035 30.56 864 25.51 5.2 41.3 38 -8 17.5
14:25 1035 30.56 864 25.51 4.8 40.7 39 -7.8 17.9
14:30 1035 30.56 864 25.51 5.2 41.4 40 -7.3 18.9
14:35 1035 30.56 864 25.51 5.1 41.2 41 -7.2 19.1
14:40 1035 30.56 864 25.51 4.9 40.8 41 -7.2 19
14:45 1035 30.56 864 25.51 4.6 40.2 41 -7.7 18.2
14:50 1035 30.56 864 25.51 4.7 40.5 41 -7.4 18.8
14:55 1035 30.56 864 25.51 4.7 40.4 39 -8 17.6
15:00 1035 30.56 864 25.51 5.1 41.1 38 -8 17.6
15:05 1035 30.56 864 25.51 5.2 41.4 38 -8.1 17.4
15:10 1035 30.56 864 25.51 5.1 41.2 38 -8 17.6
15:15 1035 30.56 864 25.51 5.1 41.2 36 -8.7 16.3
15:20 1035 30.56 864 25.51 5.1 41.2 36 -8.8 16.2
15:25 1035 30.56 864 25.51 5.3 41.5 37 -8.2 17.3
15:30 1035 30.56 864 25.51 5.2 41.4 38 -7.9 17.8
15:35 1035 30.56 864 25.51 5.2 41.3 36 -8.7 16.4
15:40 1035 30.56 864 25.51 5 41.1 37 -8.4 16.9
15:45 1035 30.56 864 25.51 4.9 40.8 41 -7.2 19
15:50 1035 30.56 864 25.51 4.2 39.6 47 -6.1 20.9
15:55 1035 30.56 864 25.51 3.2 37.8 50 -6.3 20.7
16:00 1035 30.56 864 25.51 2.9 37.1 50 -6.5 20.2
16:05 1035 30.56 864 25.51 3.2 37.8 48 -6.7 20
16:10 1035 30.56 864 25.51 3.3 38 48 -6.5 20.2
16:15 1035 30.56 864 25.51 3.5 38.3 48 -6.6 20.2
16:20 1035 30.56 864 25.51 3.8 38.8 46 -6.7 19.9
16:25 1035 30.56 864 25.51 3.6 38.5 47 -6.6 20.2
16:30 1035 30.56 864 25.51 3.4 38.1 49 -6.2 20.8
16:35 1035 30.56 864 25.51 3 37.5 50 -6.3 20.6
16:40 1035 30.56 864 25.51 2.9 37.1 51 -6.3 20.6
16:45 1035 30.56 864 25.51 2.7 36.9 51 -6.4 20.4
16:50 1035 30.56 864 25.51 2.5 36.6 53 -6.2 20.9
16:55 1035 30.56 864 25.51 2 35.7 53 -6.5 20.3
17:00 1035 30.56 864 25.51 2.1 35.7 53 -6.4 20.5
17:05 1035 30.56 864 25.51 2.2 36 53 -6.3 20.7
17:10 1035 30.56 864 25.51 1.9 35.3 54 -6.4 20.4
17:15 1035 30.56 864 25.51 1.5 34.8 56 -6.4 20.5
17:20 1035 30.56 864 25.51 1.3 34.4 56 -6.5 20.3
17:25 1035 30.56 864 25.51 1.6 34.8 55 -6.5 20.3
17:30 1035 30.56 864 25.51 1.5 34.6 57 -6.1 21
17:35 1035 30.56 864 25.51 1.1 34 59 -6.2 20.9
17:40 1035 30.56 864 25.51 1 33.7 59 -6.2 20.9
17:45 1035 30.56 864 25.51 0.6 33.2 60 -6.3 20.7
17:50 1035 30.56 864 25.51 0.6 33 60 -6.4 20.4
17:55 1035 30.56 864 25.51 0.6 33.1 60 -6.3 20.7
18:00 1035 30.56 864 25.51 0.4 32.7 60 -6.4 20.4
18:05 1035 30.56 864 25.51 0.5 32.9 60 -6.4 20.5
18:10 1035 30.56 864 25.51 0.4 32.7 62 -6.1 21
18:15 1035 30.56 864 25.51 0.2 32.4 63 -6.1 21.1
18:20 1035 30.56 864 25.51 0.1 32.1 63 -6.2 20.8
18:25 1035 30.56 864 25.51 -0.1 31.9 65 -5.8 21.5
18:30 1035 30.56 864 25.51 -0.6 30.9 66 -6.2 20.8
18:35 1035 30.56 864 25.51 -1 30.3 68 -6.2 20.9
18:40 1035 30.56 864 25.51 -1.2 29.8 68 -6.4 20.4
18:45 1035 30.56 864 25.51 -0.7 30.7 65 -6.5 20.4
18:50 1035 30.56 864 25.51 -0.1 31.8 63 -6.4 20.4
18:55 1035 30.56 864 25.51 -0.5 31.2 64 -6.4 20.4
19:00 1035 30.56 864 25.51 -0.6 31 64 -6.6 20.1
19:05 1035 30.56 864 25.51 -1.2 29.8 66 -6.8 19.7
19:10 1035 30.56 864 25.51 -1.2 29.9 66 -6.8 19.8
19:15 1035 30.56 864 25.51 -0.8 30.6 65 -6.6 20.1
19:20 1035 30.56 864 25.51 -0.5 31 63 -6.8 19.8
19:25 1035 30.56 864 25.51 -0.6 30.9 61 -7.1 19.2
19:30 1035 30.56 864 25.51 -0.6 30.9 62 -7.1 19.3
19:35 1035 30.56 864 25.51 -0.9 30.4 64 -6.9 19.6
19:40 1035 30.56 864 25.51 -1.4 29.4 63 -7.5 18.5
19:45 1035 30.56 864 25.51 -1.5 29.2 63 -7.8 18
19:50 1035 30.56 864 25.51 -1.5 29.3 61 -8.1 17.4
19:55 1035 30.56 864 25.51 -1.4 29.5 61 -8.1 17.5
20:00 1035 30.56 864 25.51 -1.4 29.5 61 -8 17.5
20:05 1035 30.56 864 25.51 -1.3 29.7 59 -8.3 17.1
20:10 1035 30.56 864 25.51 -1.2 29.8 59 -8.3 17.1
20:15 1035 30.56 864 25.51 -1.1 29.9 60 -8 17.5
20:20 1035 30.56 864 25.51 -1.1 30.1 60 -7.9 17.8
20:25 1035 30.56 864 25.51 -1.1 30.1 59 -8.2 17.3
20:30 1035 30.56 864 25.51 -1.2 29.9 58 -8.4 16.8
20:35 1035 30.56 864 25.51 -1.3 29.7 57 -8.8 16.2
20:40 1035 30.56 864 25.51 -1.5 29.4 57 -8.9 16
20:45 1035 30.56 864 25.51 -1.3 29.6 54 -9.6 14.8
20:50 1035 30.56 864 25.51 -0.4 31.3 51 -9.3 15.2
20:55 1035 30.56 864 25.51 0.2 32.4 49 -9.2 15.4
21:00 1035 30.56 864 25.51 0.5 33 53 -7.9 17.8
21:05 1035 30.56 864 25.51 -0.2 31.6 54 -8.4 16.8
21:10 1035 30.56 864 25.51 -0.3 31.4 55 -8.4 16.9
21:15 1035 30.56 864 25.51 -1.1 29.9 58 -8.4 16.9
21:20 1035 30.56 864 25.51 -2.3 27.8 58 -9.5 15
21:25 1035 30.56 864 25.51 -1.9 28.5 57 -9.4 15
21:30 1035 30.56 864 25.51 -1.6 29.1 60 -8.3 17.1
21:35 1035 30.56 864 25.51 -1.7 28.9 59 -8.8 16.1
21:40 1035 30.56 864 25.51 -1.7 28.9 60 -8.4 16.8
21:45 1035 30.56 864 25.51 -1.8 28.8 59 -8.7 16.3
21:50 1035 30.56 864 25.51 -1.7 29 56 -9.3 15.3
21:55 1035 30.56 864 25.51 -1.4 29.5 55 -9.4 15
22:00 1035 30.56 864 25.51 -1.1 30 57 -8.6 16.4
22:05 1035 30.56 864 25.51 -0.9 30.4 51 -9.7 14.5
22:10 1035 30.56 864 25.51 -1.2 29.8 53 -9.6 14.6
22:15 1035 30.56 864 25.51 -1.8 28.7 59 -8.8 16.2
22:20 1035 30.56 864 25.51 -2.3 27.9 60 -9 15.9
22:25 1035 30.56 864 25.51 -2.5 27.6 60 -9.3 15.3
22:30 1035 30.56 864 25.51 -2.4 27.7 59 -9.4 15.1
22:35 1035 30.56 864 25.51 -2.4 27.6 60 -9.2 15.4
22:40 1035 30.56 864 25.51 -2.5 27.6 59 -9.3 15.2
22:45 1035 30.56 864 25.51 -2.1 28.3 58 -9.3 15.3
22:50 1035 30.56 864 25.51 -1.9 28.6 57 -9.3 15.3
22:55 1035 30.56 864 25.51 -1.9 28.6 57 -9.4 15.1
23:00 1035 30.56 864 25.51 -2.1 28.3 59 -9.1 15.6
23:05 1035 30.56 864 25.51 -2.2 28.1 57 -9.5 14.8
23:10 1035 30.56 864 25.51 -2.2 28 58 -9.5 14.8
23:15 1035 30.56 865 25.54 -2.4 27.7 58 -9.7 14.6
23:20 1035 30.56 864 25.51 -2.4 27.7 57 -9.8 14.3
23:25 1035 30.56 864 25.51 -2.3 27.8 56 -9.9 14.2
23:30 1035 30.56 864 25.51 -2.1 28.3 56 -9.8 14.4
23:35 1035 30.56 864 25.51 -1.9 28.5 54 -10 14.1
23:40 1035 30.56 865 25.54 -1.9 28.5 55 -9.9 14.2
23:45 1035 30.56 864 25.51 -2.2 28.1 55 -10.2 13.7
23:50 1035 30.56 864 25.51 -2.4 27.8 56 -9.9 14.1
23:55 1035 30.56 865 25.54 -2.5 27.5 55 -10.2 13.6
24:00 1035 30.56 865 25.54 -2.5 27.4 55 -10.4 13.3